Time;durP1;ratioP1;P1;durP2;ratioP2;P2;SDS_P1;SDS_P2;PMS_P1;PMS_P2;Temp;Humidity;BMP_temperature;BMP_pressure;BME280_temperature;BME280_humidity;BME280_pressure;Samples;Min_cycle;Max_cycle;Signal;HPM_P1;HPM_P2
2021/06/19 00:00:28;;;;;;;23.98;15.52;;;25.90;98.70;;;;;;5038643;28;20471;-93
2021/06/19 00:02:53;;;;;;;24.90;15.35;;;25.90;98.60;;;;;;5037645;28;20048;-90
2021/06/19 00:05:19;;;;;;;22.27;14.90;;;25.90;98.60;;;;;;5037790;28;20030;-91
2021/06/19 00:07:47;;;;;;;22.42;15.23;;;25.90;98.90;;;;;;5037063;28;20037;-90
2021/06/19 00:10:14;;;;;;;18.48;15.25;;;25.80;98.80;;;;;;5037322;28;20050;-89
2021/06/19 00:12:41;;;;;;;19.05;15.25;;;25.90;99.00;;;;;;5038169;28;20111;-92
2021/06/19 00:15:09;;;;;;;21.93;14.57;;;25.80;98.90;;;;;;5031495;28;20045;-94
2021/06/19 00:17:37;;;;;;;19.88;15.27;;;25.80;98.80;;;;;;5030023;28;20025;-93
2021/06/19 00:20:23;;;;;;;21.33;15.73;;;25.80;98.90;;;;;;5038393;28;20029;-90
2021/06/19 00:22:54;;;;;;;20.13;14.98;;;25.90;98.80;;;;;;5042163;28;20025;-93
2021/06/19 00:25:21;;;;;;;20.67;14.52;;;25.90;98.90;;;;;;5049095;28;20079;-94
2021/06/19 00:27:47;;;;;;;21.55;16.42;;;25.80;98.90;;;;;;5043003;28;20035;-92
2021/06/19 00:30:15;;;;;;;18.40;15.13;;;25.80;99.10;;;;;;5046266;28;20025;-96
2021/06/19 00:32:42;;;;;;;22.27;15.00;;;25.80;98.90;;;;;;5033158;28;20048;-93
2021/06/19 00:35:14;;;;;;;22.98;14.70;;;25.80;99.00;;;;;;5043708;28;20038;-95
2021/06/19 00:37:40;;;;;;;22.98;15.13;;;25.90;99.00;;;;;;5041665;28;20025;-93
2021/06/19 00:40:11;;;;;;;19.85;14.77;;;25.90;98.80;;;;;;5044908;28;20040;-95
2021/06/19 00:42:37;;;;;;;18.67;14.40;;;25.90;98.80;;;;;;5045531;28;20035;-96
2021/06/19 00:45:05;;;;;;;22.10;15.52;;;25.90;98.70;;;;;;5042373;28;20199;-90
2021/06/19 00:47:31;;;;;;;19.25;14.63;;;25.90;98.50;;;;;;5038907;28;20048;-93
2021/06/19 00:49:56;;;;;;;22.33;14.82;;;25.90;98.70;;;;;;5036608;28;20053;-90
2021/06/19 00:52:22;;;;;;;16.73;14.25;;;25.90;98.80;;;;;;5042440;28;20033;-91
2021/06/19 00:54:47;;;;;;;20.20;14.35;;;25.90;98.80;;;;;;5038162;28;20099;-93
2021/06/19 00:57:16;;;;;;;22.58;15.20;;;25.80;98.80;;;;;;5041030;28;20052;-96
2021/06/19 00:59:43;;;;;;;18.77;14.10;;;25.80;98.80;;;;;;5042867;28;20053;-94
2021/06/19 01:02:10;;;;;;;20.05;15.15;;;25.80;99.10;;;;;;5040613;28;20064;-91
2021/06/19 01:04:46;;;;;;;20.52;14.52;;;25.80;98.80;;;;;;5038332;28;20033;-94
2021/06/19 01:07:11;;;;;;;18.48;14.98;;;25.80;98.90;;;;;;5038304;28;20037;-93
2021/06/19 01:09:37;;;;;;;18.20;14.65;;;25.80;98.80;;;;;;5039550;28;20037;-95
2021/06/19 01:12:03;;;;;;;21.42;15.65;;;25.80;98.80;;;;;;5259115;23;20049;-95
2021/06/19 01:14:30;;;;;;;21.90;14.30;;;25.80;98.80;;;;;;5042564;28;20136;-96
2021/06/19 01:16:58;;;;;;;18.48;14.80;;;25.80;98.80;;;;;;5030484;28;20109;-96
2021/06/19 01:19:27;;;;;;;;;;;25.80;98.70;;;;;;5109847;22;20033;-96
2021/06/19 01:21:58;;;;;;;16.70;14.15;;;25.80;98.80;;;;;;5077964;23;19952;-96
2021/06/19 01:29:28;;;;;;;20.45;14.40;;;25.70;99.10;;;;;;5034943;28;20041;-92
2021/06/19 01:32:00;;;;;;;19.90;14.40;;;25.70;99.00;;;;;;5019987;28;20041;-94
2021/06/19 01:34:25;;;;;;;21.25;14.38;;;25.60;99.20;;;;;;5037812;28;20038;-93
2021/06/19 01:36:51;;;;;;;20.23;13.30;;;25.50;99.40;;;;;;5021768;28;20099;-96
2021/06/19 01:39:17;;;;;;;22.92;13.70;;;25.60;99.40;;;;;;5021584;28;20017;-94
2021/06/19 01:41:49;;;;;;;18.33;14.02;;;25.50;99.50;;;;;;5022240;28;20017;-94
2021/06/19 01:44:16;;;;;;;16.27;13.68;;;25.50;99.60;;;;;;5021190;28;20042;-93
2021/06/19 01:46:44;;;;;;;17.92;13.55;;;25.40;99.70;;;;;;5019865;28;20090;-93
2021/06/19 01:49:10;;;;;;;;;;;25.40;99.70;;;;;;5022037;28;20396;-92
2021/06/19 01:51:35;;;;;;;20.38;14.52;;;25.40;99.50;;;;;;5024341;28;19943;-92
2021/06/19 01:54:02;;;;;;;19.75;14.77;;;25.50;99.50;;;;;;5026921;28;20541;-94
2021/06/19 01:56:28;;;;;;;18.48;13.98;;;25.40;99.40;;;;;;5026263;28;20459;-96
2021/06/19 01:58:54;;;;;;;20.60;14.50;;;25.40;99.10;;;;;;5024759;28;20026;-93
2021/06/19 02:01:21;;;;;;;20.27;13.82;;;25.50;99.30;;;;;;5026136;28;20345;-93
2021/06/19 02:03:48;;;;;;;16.48;13.88;;;25.50;99.50;;;;;;5031730;28;20037;-94
2021/06/19 02:06:14;;;;;;;18.70;13.25;;;25.50;98.80;;;;;;5030946;28;20032;-95
2021/06/19 02:08:58;;;;;;;16.52;13.48;;;25.50;98.90;;;;;;5035129;28;20053;-94
2021/06/19 02:11:26;;;;;;;20.25;14.30;;;25.50;99.20;;;;;;4963822;28;20480;-92
2021/06/19 02:13:51;;;;;;;18.40;13.73;;;25.50;99.70;;;;;;5026147;28;20033;-96
2021/06/19 02:16:23;;;;;;;17.48;13.65;;;25.50;99.90;;;;;;5023254;28;20064;-91
2021/06/19 02:18:49;;;;;;;18.55;13.82;;;25.40;99.90;;;;;;5024170;28;20026;-92
2021/06/19 02:21:16;;;;;;;16.58;13.32;;;25.40;99.80;;;;;;5025385;28;20124;-92
2021/06/19 02:23:41;;;;;;;17.65;13.27;;;25.30;99.80;;;;;;5025450;28;20112;-91
2021/06/19 02:26:07;;;;;;;18.15;13.50;;;25.30;99.60;;;;;;5020606;28;20069;-89
2021/06/19 02:28:35;;;;;;;21.27;13.38;;;25.30;99.60;;;;;;5020519;28;20475;-89
2021/06/19 02:31:00;;;;;;;;;;;25.20;99.90;;;;;;5020742;28;20038;-89
2021/06/19 02:33:26;;;;;;;23.42;13.75;;;25.10;99.80;;;;;;5020216;28;19909;-88
2021/06/19 02:35:53;;;;;;;18.35;13.25;;;25.20;99.80;;;;;;5022530;28;20017;-89
2021/06/19 02:38:20;;;;;;;19.45;13.38;;;25.20;99.90;;;;;;5019770;28;20062;-88
2021/06/19 02:40:46;;;;;;;;;;;25.10;99.90;;;;;;5020368;28;20053;-89
2021/06/19 02:43:13;;;;;;;21.00;13.75;;;25.10;99.90;;;;;;5019828;28;20010;-90
2021/06/19 02:45:39;;;;;;;21.17;13.68;;;25.10;99.90;;;;;;5019215;28;20523;-89
2021/06/19 02:48:06;;;;;;;18.40;13.60;;;25.00;99.90;;;;;;5019260;28;20022;-88
2021/06/19 02:50:34;;;;;;;16.85;14.10;;;25.00;99.90;;;;;;5041649;28;20061;-89
2021/06/19 02:53:00;;;;;;;18.38;13.48;;;24.90;99.90;;;;;;5028325;28;20460;-91
2021/06/19 02:55:28;;;;;;;17.70;13.75;;;24.90;99.90;;;;;;5030771;28;20061;-90
2021/06/19 02:57:54;;;;;;;19.35;14.07;;;24.90;99.90;;;;;;5019791;28;20041;-90
2021/06/19 03:00:22;;;;;;;18.55;13.48;;;25.00;99.90;;;;;;5025774;28;20033;-92
2021/06/19 03:02:48;;;;;;;16.42;14.10;;;24.90;99.90;;;;;;5046861;28;20080;-91
2021/06/19 03:05:17;;;;;;;18.30;12.60;;;24.90;99.90;;;;;;5029067;28;20112;-92
2021/06/19 03:07:43;;;;;;;20.08;13.23;;;24.90;99.90;;;;;;5031613;28;20088;-95
2021/06/19 03:10:15;;;;;;;16.60;13.60;;;24.90;99.90;;;;;;5054572;28;20033;-93
2021/06/19 03:12:52;;;;;;;19.52;13.85;;;24.90;99.80;;;;;;5058327;28;20064;-94
2021/06/19 03:15:18;;;;;;;19.58;13.60;;;25.00;99.80;;;;;;5050379;28;20013;-93
2021/06/19 03:17:44;;;;;;;22.05;13.60;;;25.00;99.50;;;;;;5037522;28;20029;-95
2021/06/19 03:20:14;;;;;;;23.15;13.00;;;25.00;99.50;;;;;;5035647;28;20052;-96
2021/06/19 03:22:48;;;;;;;26.70;13.60;;;25.00;99.40;;;;;;5000502;28;20436;-78
2021/06/19 03:25:29;;;;;;;34.60;15.27;;;25.00;99.60;;;;;;5031938;28;20088;-77
2021/06/19 03:27:56;;;;;;;32.72;15.52;;;25.10;99.90;;;;;;5031706;28;20064;-78
2021/06/19 03:30:22;;;;;;;26.35;14.27;;;25.10;99.90;;;;;;5031865;28;20040;-79
2021/06/19 03:32:48;;;;;;;26.80;14.40;;;25.10;99.90;;;;;;5033538;28;20112;-78
2021/06/19 03:35:15;;;;;;;22.70;14.40;;;25.00;99.90;;;;;;5031810;28;20116;-79
2021/06/19 03:37:41;;;;;;;23.80;14.48;;;24.90;99.90;;;;;;5031812;28;20029;-79
2021/06/19 03:40:10;;;;;;;23.73;14.30;;;24.80;99.90;;;;;;5031762;28;20117;-79
2021/06/19 03:42:37;;;;;;;24.95;13.52;;;24.80;99.90;;;;;;5031797;28;20160;-78
2021/06/19 03:45:04;;;;;;;18.08;14.05;;;24.80;99.90;;;;;;5032043;28;20033;-81
2021/06/19 03:47:29;;;;;;;20.52;12.98;;;24.70;99.90;;;;;;5033254;28;20091;-79
2021/06/19 03:49:55;;;;;;;25.45;14.02;;;24.60;99.90;;;;;;5013494;28;20041;-78
2021/06/19 03:52:20;;;;;;;22.05;13.35;;;24.60;99.90;;;;;;5031581;28;20052;-78
2021/06/19 03:54:47;;;;;;;28.95;14.43;;;24.60;99.90;;;;;;5031650;28;20518;-80
2021/06/19 03:57:25;;;;;;;27.52;14.10;;;24.50;99.90;;;;;;5031519;28;20021;-80
2021/06/19 03:59:52;;;;;;;19.00;14.13;;;24.50;99.90;;;;;;5015281;28;20032;-79
2021/06/19 04:02:18;;;;;;;20.95;14.63;;;24.40;99.90;;;;;;5031233;28;20069;-79
2021/06/19 04:04:44;;;;;;;26.83;15.10;;;24.40;99.90;;;;;;5013479;28;20029;-79
2021/06/19 04:07:10;;;;;;;24.55;13.73;;;24.40;99.90;;;;;;5031419;28;20540;-79
2021/06/19 04:09:35;;;;;;;24.42;14.85;;;24.30;99.90;;;;;;5030986;28;20033;-81
2021/06/19 04:12:01;;;;;;;25.52;15.77;;;24.40;99.90;;;;;;5031164;28;20018;-81
2021/06/19 04:14:26;;;;;;;27.38;14.50;;;24.40;99.90;;;;;;5015612;28;20053;-80
2021/06/19 04:16:52;;;;;;;25.83;14.70;;;24.40;99.90;;;;;;5031143;28;20060;-78
2021/06/19 04:19:17;;;;;;;27.38;14.55;;;24.30;99.90;;;;;;5030978;28;20030;-77
2021/06/19 04:21:43;;;;;;;22.90;14.85;;;24.30;99.90;;;;;;5030934;28;20036;-78
2021/06/19 04:24:09;;;;;;;29.08;15.80;;;24.30;99.90;;;;;;5030394;28;20029;-77
2021/06/19 04:26:34;;;;;;;25.42;15.18;;;24.20;99.90;;;;;;5032500;28;20095;-79
2021/06/19 04:29:01;;;;;;;25.17;15.80;;;24.30;99.90;;;;;;5013008;28;20061;-80
2021/06/19 04:31:27;;;;;;;21.17;14.35;;;24.30;99.90;;;;;;5030691;28;20038;-79
2021/06/19 04:33:53;;;;;;;24.02;15.27;;;24.20;99.90;;;;;;5030817;28;20498;-79
2021/06/19 04:36:19;;;;;;;19.10;14.43;;;24.30;99.90;;;;;;5030826;28;20022;-79
2021/06/19 04:38:45;;;;;;;27.60;14.45;;;24.30;99.90;;;;;;5032020;28;20024;-79
2021/06/19 04:41:24;;;;;;;25.58;15.48;;;24.30;99.90;;;;;;5030577;28;20037;-79
2021/06/19 04:44:07;;;;;;;22.67;15.52;;;24.30;99.90;;;;;;5013224;28;20446;-78
2021/06/19 04:46:32;;;;;;;21.15;13.15;;;24.30;99.90;;;;;;5030275;28;20072;-79
2021/06/19 04:48:58;;;;;;;20.23;14.13;;;24.40;99.90;;;;;;5031804;28;20092;-79
2021/06/19 04:51:24;;;;;;;22.95;14.85;;;24.40;99.90;;;;;;5013804;28;20468;-78
2021/06/19 04:53:52;;;;;;;23.73;12.35;;;24.40;99.90;;;;;;5032349;28;20306;-79
2021/06/19 04:56:18;;;;;;;25.58;12.90;;;24.30;99.90;;;;;;5030374;28;20041;-78
2021/06/19 04:58:45;;;;;;;24.13;11.80;;;24.30;99.90;;;;;;5030074;28;20041;-76
2021/06/19 05:01:10;;;;;;;20.00;11.25;;;24.40;99.90;;;;;;5012862;28;20033;-77
2021/06/19 05:03:36;;;;;;;19.33;9.63;;;24.40;99.90;;;;;;5030471;28;20033;-77
2021/06/19 05:06:01;;;;;;;19.20;10.50;;;24.40;99.90;;;;;;5012844;28;20079;-77
2021/06/19 05:08:27;;;;;;;17.48;9.05;;;24.40;99.90;;;;;;5031798;28;20063;-79
2021/06/19 05:10:53;;;;;;;19.20;9.55;;;24.50;99.90;;;;;;5012644;28;20116;-78
2021/06/19 05:13:18;;;;;;;16.42;9.73;;;24.50;99.90;;;;;;5029830;28;20045;-79
2021/06/19 05:15:44;;;;;;;16.45;9.00;;;24.40;99.90;;;;;;5029614;28;20038;-79
2021/06/19 05:18:09;;;;;;;18.17;9.57;;;24.40;99.90;;;;;;5030161;28;20086;-80
2021/06/19 05:20:35;;;;;;;14.55;9.98;;;24.40;99.90;;;;;;5031672;28;20462;-78
2021/06/19 05:23:08;;;;;;;13.18;8.85;;;24.50;99.90;;;;;;5011741;28;20472;-79
2021/06/19 05:25:34;;;;;;;13.43;8.15;;;24.50;99.90;;;;;;5030004;28;20029;-80
2021/06/19 05:27:59;;;;;;;15.40;7.75;;;24.60;99.80;;;;;;5012267;28;20052;-79
2021/06/19 05:30:25;;;;;;;19.38;9.30;;;24.50;99.70;;;;;;5012197;28;20049;-79
2021/06/19 05:32:51;;;;;;;14.25;7.78;;;24.60;99.70;;;;;;5014272;28;20021;-79
2021/06/19 05:35:16;;;;;;;16.90;7.03;;;24.70;99.60;;;;;;5029853;28;20117;-79
2021/06/19 05:37:42;;;;;;;16.70;7.75;;;24.70;99.60;;;;;;5029483;28;20246;-78
2021/06/19 05:40:08;;;;;;;15.90;6.80;;;24.80;99.50;;;;;;5029525;28;20034;-78
2021/06/19 05:42:34;;;;;;;13.07;7.30;;;24.80;99.30;;;;;;5029689;28;20029;-77
2021/06/19 05:45:00;;;;;;;15.45;7.13;;;24.80;99.00;;;;;;5030995;28;20583;-77
2021/06/19 05:47:25;;;;;;;16.25;7.35;;;24.80;99.10;;;;;;5030175;28;20049;-78
2021/06/19 05:49:51;;;;;;;12.05;6.75;;;25.00;99.00;;;;;;5029491;28;20040;-77
2021/06/19 05:52:17;;;;;;;12.50;6.53;;;25.00;98.60;;;;;;5029334;28;20120;-77
2021/06/19 05:54:42;;;;;;;11.65;6.60;;;25.10;98.50;;;;;;5029879;28;20095;-76
2021/06/19 05:57:09;;;;;;;18.50;5.90;;;25.10;98.00;;;;;;5029782;28;20026;-82
2021/06/19 05:59:35;;;;;;;16.38;6.07;;;25.10;97.90;;;;;;5013814;28;20033;-83
2021/06/19 06:02:04;;;;;;;11.80;5.85;;;25.10;97.70;;;;;;5025552;28;20045;-82
2021/06/19 06:04:31;;;;;;;12.93;5.65;;;25.10;97.70;;;;;;5029974;28;20037;-83
2021/06/19 06:06:56;;;;;;;19.73;5.80;;;25.10;97.40;;;;;;5012392;28;20459;-81
2021/06/19 06:09:22;;;;;;;17.52;6.05;;;25.10;97.20;;;;;;5029971;28;20490;-82
2021/06/19 06:11:48;;;;;;;8.73;4.32;;;25.20;97.10;;;;;;5014175;28;20399;-81
2021/06/19 06:14:13;;;;;;;8.60;4.32;;;25.30;96.70;;;;;;5030029;28;20179;-81
2021/06/19 06:16:40;;;;;;;7.53;4.07;;;25.20;96.40;;;;;;5011655;28;20080;-78
2021/06/19 06:19:05;;;;;;;10.77;4.10;;;25.30;96.30;;;;;;5033329;28;20113;-92
2021/06/19 06:21:31;;;;;;;5.72;3.40;;;25.30;95.90;;;;;;5014059;28;20346;-86
2021/06/19 06:23:57;;;;;;;7.20;4.10;;;25.40;95.60;;;;;;5031502;28;20025;-85
2021/06/19 06:26:24;;;;;;;8.07;4.13;;;25.40;95.50;;;;;;5030470;28;20463;-86
2021/06/19 06:28:49;;;;;;;11.55;4.13;;;25.50;95.40;;;;;;5030152;28;20085;-85
2021/06/19 06:31:15;;;;;;;6.68;3.38;;;25.50;95.40;;;;;;5029514;28;20064;-86
2021/06/19 06:33:40;;;;;;;5.80;3.35;;;25.50;95.00;;;;;;5012143;28;20464;-84
2021/06/19 06:36:06;;;;;;;6.00;3.47;;;25.60;95.10;;;;;;5014288;28;20224;-85
2021/06/19 06:38:34;;;;;;;10.85;3.35;;;25.70;94.80;;;;;;5035221;28;20026;-86
2021/06/19 06:41:00;;;;;;;6.85;3.10;;;25.60;94.60;;;;;;5033795;28;20030;-87
2021/06/19 06:43:25;;;;;;;8.52;3.40;;;25.60;94.60;;;;;;5033547;28;20367;-76
2021/06/19 06:45:51;;;;;;;7.30;3.47;;;25.70;94.40;;;;;;5032948;28;20133;-77
2021/06/19 06:48:17;;;;;;;7.38;3.78;;;25.70;94.50;;;;;;5033167;28;20033;-75
2021/06/19 06:50:42;;;;;;;9.38;3.42;;;25.70;94.30;;;;;;5035109;28;20029;-76
2021/06/19 06:53:08;;;;;;;7.72;4.07;;;25.80;94.30;;;;;;5032976;28;20072;-76
2021/06/19 06:55:34;;;;;;;7.90;4.70;;;25.80;94.30;;;;;;5032821;28;20044;-75
2021/06/19 06:58:00;;;;;;;10.32;6.07;;;25.80;94.30;;;;;;5032931;28;20061;-78
2021/06/19 07:00:25;;;;;;;9.18;3.97;;;25.90;94.40;;;;;;5032873;28;20033;-80
2021/06/19 07:02:51;;;;;;;11.13;3.53;;;25.90;94.10;;;;;;5034049;28;20037;-82
2021/06/19 07:05:17;;;;;;;7.90;3.17;;;26.00;94.20;;;;;;5032548;28;20456;-84
2021/06/19 07:07:43;;;;;;;9.02;3.97;;;26.20;94.10;;;;;;5015328;28;20084;-83
2021/06/19 07:10:11;;;;;;;9.63;4.15;;;26.30;93.80;;;;;;5032162;28;20041;-82
2021/06/19 07:12:37;;;;;;;7.30;3.80;;;26.40;93.70;;;;;;5015391;28;20030;-84
2021/06/19 07:15:04;;;;;;;8.07;4.07;;;26.30;93.70;;;;;;5032444;28;20336;-80
2021/06/19 07:17:30;;;;;;;11.80;4.17;;;26.30;93.60;;;;;;5033946;28;20367;-75
2021/06/19 07:19:55;;;;;;;5.72;3.67;;;26.40;93.50;;;;;;5032727;28;20231;-75
2021/06/19 07:22:21;;;;;;;5.72;3.50;;;26.50;93.50;;;;;;5032057;28;20349;-78
2021/06/19 07:24:48;;;;;;;9.05;3.58;;;26.50;93.50;;;;;;5032466;28;20083;-80
2021/06/19 07:27:13;;;;;;;6.03;3.47;;;26.60;93.10;;;;;;5014778;28;20047;-87
2021/06/19 07:29:41;;;;;;;8.23;3.70;;;26.50;92.60;;;;;;5034201;28;20025;-84
2021/06/19 07:32:07;;;;;;;4.68;3.08;;;26.70;92.60;;;;;;5031962;28;20379;-82
2021/06/19 07:34:33;;;;;;;6.78;2.50;;;26.90;91.90;;;;;;5015025;28;20053;-88
2021/06/19 07:36:59;;;;;;;6.13;3.15;;;26.90;91.60;;;;;;5032605;28;20026;-87
2021/06/19 07:39:25;;;;;;;5.65;2.97;;;27.30;91.10;;;;;;5031888;28;20025;-86
2021/06/19 07:41:51;;;;;;;7.18;2.97;;;27.30;90.90;;;;;;5033660;28;20034;-83
2021/06/19 07:44:17;;;;;;;10.27;2.88;;;27.60;91.10;;;;;;5032158;28;20041;-81
2021/06/19 07:46:43;;;;;;;4.50;3.00;;;28.30;90.10;;;;;;5014029;28;20052;-82
2021/06/19 07:49:08;;;;;;;5.97;2.92;;;28.50;88.90;;;;;;5031907;28;20465;-82
2021/06/19 07:51:34;;;;;;;10.10;4.50;;;28.80;87.90;;;;;;5022757;28;20404;-83
2021/06/19 07:54:00;;;;;;;4.35;3.08;;;29.20;86.60;;;;;;5013393;28;20030;-84
2021/06/19 07:56:26;;;;;;;9.45;2.67;;;29.40;84.70;;;;;;4994656;28;20060;-82
2021/06/19 07:58:52;;;;;;;5.50;3.00;;;29.70;84.80;;;;;;5012049;28;20040;-82
2021/06/19 08:01:18;;;;;;;8.63;3.40;;;30.00;82.90;;;;;;5011484;28;20037;-82
2021/06/19 08:03:43;;;;;;;7.32;2.85;;;30.40;81.90;;;;;;5011272;28;20105;-84
2021/06/19 08:06:09;;;;;;;9.10;3.10;;;30.80;79.90;;;;;;5011573;28;20586;-84
2021/06/19 08:08:35;;;;;;;9.52;3.22;;;31.20;79.10;;;;;;5012808;28;20022;-84
2021/06/19 08:11:01;;;;;;;11.00;3.35;;;31.90;76.70;;;;;;5011362;28;20069;-83
2021/06/19 08:13:27;;;;;;;10.20;3.33;;;32.00;76.40;;;;;;5010966;28;20053;-86
2021/06/19 08:15:56;;;;;;;9.25;3.22;;;32.30;74.30;;;;;;5011252;28;20029;-84
2021/06/19 08:18:22;;;;;;;7.65;3.17;;;32.30;73.10;;;;;;4993721;28;20034;-83
2021/06/19 08:20:47;;;;;;;3.83;2.90;;;32.80;72.80;;;;;;5012697;28;20029;-84
2021/06/19 08:23:13;;;;;;;6.05;2.80;;;33.10;70.00;;;;;;4993639;28;20041;-83
2021/06/19 08:25:39;;;;;;;8.35;2.85;;;33.50;69.20;;;;;;5010844;28;20416;-83
2021/06/19 08:28:05;;;;;;;6.22;2.70;;;33.80;64.90;;;;;;5010227;28;20052;-84
2021/06/19 08:30:31;;;;;;;5.57;2.65;;;33.80;64.20;;;;;;4993754;28;20164;-84
2021/06/19 08:32:56;;;;;;;3.28;2.67;;;34.60;65.50;;;;;;5012638;28;20097;-83
2021/06/19 08:35:22;;;;;;;3.33;2.35;;;35.00;60.00;;;;;;5011124;28;20046;-83
2021/06/19 08:37:48;;;;;;;7.90;2.78;;;35.30;60.40;;;;;;5011231;28;20040;-83
2021/06/19 08:40:14;;;;;;;7.50;2.90;;;35.30;59.90;;;;;;5011096;28;20041;-82
2021/06/19 08:42:39;;;;;;;3.47;2.42;;;35.10;58.70;;;;;;5010459;28;20098;-84
2021/06/19 08:45:06;;;;;;;4.68;2.63;;;35.90;58.60;;;;;;5010604;28;20085;-83
2021/06/19 08:47:36;;;;;;;4.18;2.30;;;36.10;57.00;;;;;;5012579;28;20068;-83
2021/06/19 08:50:06;;;;;;;9.77;2.60;;;36.40;54.90;;;;;;4993516;28;20187;-82
2021/06/19 08:52:36;;;;;;;3.67;2.60;;;35.70;55.30;;;;;;4995948;28;20049;-84
2021/06/19 08:55:05;;;;;;;5.07;2.75;;;36.20;54.10;;;;;;5010350;28;20345;-85
2021/06/19 08:57:30;;;;;;;6.10;2.33;;;36.30;52.90;;;;;;5009950;28;20041;-85
2021/06/19 08:59:56;;;;;;;4.43;2.58;;;35.40;53.00;;;;;;5012314;28;20029;-86
2021/06/19 09:02:22;;;;;;;6.88;2.33;;;36.40;54.00;;;;;;5011260;28;20068;-86
2021/06/19 09:05:04;;;;;;;6.63;2.38;;;36.40;52.70;;;;;;5010985;28;20065;-87
2021/06/19 09:07:46;;;;;;;7.57;2.35;;;36.10;52.80;;;;;;5010969;28;20053;-87
2021/06/19 09:10:35;;;;;;;7.30;2.53;;;36.20;51.30;;;;;;5011024;28;20042;-87
2021/06/19 09:13:08;;;;;;;2.30;2.10;;;35.20;52.60;;;;;;4993151;28;20092;-84
2021/06/19 09:15:42;;;;;;;2.95;2.10;;;35.00;53.10;;;;;;4992794;28;20037;-87
2021/06/19 09:18:09;;;;;;;3.28;1.88;;;34.60;52.40;;;;;;4993277;28;20349;-86
2021/06/19 09:20:52;;;;;;;4.82;2.17;;;33.90;53.50;;;;;;5012546;28;20014;-86
2021/06/19 09:23:47;;;;;;;3.15;2.00;;;33.70;52.70;;;;;;5010879;28;20080;-85
2021/06/19 09:26:17;;;;;;;7.38;1.98;;;33.50;54.10;;;;;;5009843;28;20107;-85
2021/06/19 09:29:15;;;;;;;3.17;2.03;;;33.90;53.80;;;;;;5010816;28;20046;-86
2021/06/19 09:31:50;;;;;;;7.68;2.00;;;33.20;54.00;;;;;;5011081;28;20130;-87
2021/06/19 09:34:22;;;;;;;4.50;2.10;;;33.20;54.00;;;;;;4992547;28;20064;-86
2021/06/19 09:36:57;;;;;;;4.72;2.03;;;32.40;55.20;;;;;;4993713;28;20074;-87
2021/06/19 09:39:29;;;;;;;6.45;1.90;;;32.90;55.60;;;;;;4993095;28;20034;-88
2021/06/19 09:41:57;;;;;;;6.85;2.30;;;32.80;56.70;;;;;;5012168;28;20018;-87
2021/06/19 09:44:37;;;;;;;3.28;2.08;;;33.00;55.50;;;;;;5010743;28;20034;-87
2021/06/19 09:47:04;;;;;;;3.40;2.10;;;32.80;55.00;;;;;;4993142;28;20038;-87
2021/06/19 09:49:34;;;;;;;7.53;3.07;;;32.60;55.70;;;;;;5008762;28;20476;-87
2021/06/19 09:52:01;;;;;;;5.65;3.00;;;32.70;56.20;;;;;;4992022;28;20061;-88
2021/06/19 09:54:26;;;;;;;4.97;2.40;;;32.70;56.30;;;;;;4992733;28;20034;-87
2021/06/19 09:56:54;;;;;;;5.15;2.00;;;32.50;56.60;;;;;;4994714;28;20038;-86
2021/06/19 09:59:31;;;;;;;2.92;1.90;;;32.70;55.70;;;;;;5011163;28;20052;-89
2021/06/19 10:02:19;;;;;;;2.90;2.50;;;32.60;55.30;;;;;;4992195;28;20111;-84
2021/06/19 10:04:48;;;;;;;;;;;32.50;55.50;;;;;;4992384;28;20106;-85
2021/06/19 10:07:14;;;;;;;3.42;2.17;;;32.70;56.50;;;;;;5009967;28;19956;-83
2021/06/19 10:09:40;;;;;;;2.90;2.00;;;32.40;57.30;;;;;;5011610;28;20068;-87
2021/06/19 10:12:06;;;;;;;9.65;2.22;;;32.30;58.00;;;;;;5013674;28;20356;-85
2021/06/19 10:14:32;;;;;;;3.25;2.10;;;32.00;57.80;;;;;;5015130;28;20048;-86
2021/06/19 10:16:59;;;;;;;6.30;1.90;;;31.80;57.70;;;;;;5013319;28;20026;-86
2021/06/19 10:19:26;;;;;;;3.07;2.20;;;31.50;58.30;;;;;;4996158;28;20088;-85
2021/06/19 10:21:54;;;;;;;3.63;2.28;;;31.60;58.50;;;;;;5013233;28;20270;-84
2021/06/19 10:24:22;;;;;;;6.03;1.90;;;31.70;58.60;;;;;;5013766;28;20053;-84
2021/06/19 10:26:50;;;;;;;4.45;1.98;;;31.80;58.40;;;;;;5015083;28;20033;-84
2021/06/19 10:29:18;;;;;;;3.63;1.73;;;32.10;58.10;;;;;;4995979;28;20062;-84
2021/06/19 10:31:50;;;;;;;4.07;2.10;;;32.20;58.60;;;;;;4995756;28;20057;-84
2021/06/19 10:34:30;;;;;;;3.20;1.80;;;32.30;58.40;;;;;;4995765;28;20038;-84
2021/06/19 10:36:59;;;;;;;3.95;1.92;;;32.30;58.20;;;;;;5013454;28;20046;-84
2021/06/19 10:39:33;;;;;;;3.13;2.08;;;32.10;58.20;;;;;;5013165;28;20034;-83
2021/06/19 10:42:00;;;;;;;3.58;1.90;;;32.40;58.30;;;;;;4997477;28;20122;-84
2021/06/19 10:44:53;;;;;;;3.23;1.53;;;32.20;58.10;;;;;;4996214;28;20049;-85
2021/06/19 10:47:21;;;;;;;4.90;1.50;;;32.00;57.40;;;;;;5014899;28;20060;-86
2021/06/19 10:49:47;;;;;;;3.38;1.90;;;31.70;58.20;;;;;;5012258;28;20392;-85
2021/06/19 10:52:35;;;;;;;6.95;2.10;;;31.70;58.70;;;;;;4981162;28;20057;-82
2021/06/19 10:55:10;;;;;;;4.55;1.98;;;31.90;58.70;;;;;;4991887;28;20053;-86
2021/06/19 10:57:44;;;;;;;2.03;1.30;;;31.60;59.30;;;;;;5012705;28;20111;-85
2021/06/19 11:00:32;;;;;;;3.88;1.70;;;31.70;59.10;;;;;;4995094;28;20037;-86
2021/06/19 11:03:00;;;;;;;3.25;1.40;;;31.90;58.30;;;;;;4997299;28;20030;-84
2021/06/19 11:05:44;;;;;;;3.78;1.27;;;32.10;58.40;;;;;;4993354;28;20070;-83
2021/06/19 11:08:11;;;;;;;2.88;1.60;;;32.00;57.90;;;;;;4995384;28;20092;-84
2021/06/19 11:10:49;;;;;;;12.27;4.82;;;31.90;56.60;;;;;;4994667;28;20041;-86
2021/06/19 11:13:30;;;;;;;8.00;3.70;;;31.90;54.40;;;;;;5012323;28;20026;-85
2021/06/19 11:16:02;;;;;;;3.47;1.48;;;31.90;55.00;;;;;;5012588;28;20029;-84
2021/06/19 11:18:50;;;;;;;2.30;1.45;;;31.70;54.80;;;;;;5012471;28;20296;-86
2021/06/19 11:21:25;;;;;;;2.28;0.95;;;31.60;55.30;;;;;;4994201;28;20463;-85
2021/06/19 11:24:03;;;;;;;2.92;1.10;;;31.70;54.10;;;;;;4996044;28;20041;-86
2021/06/19 11:26:50;;;;;;;2.28;1.10;;;31.80;53.30;;;;;;5012727;28;20045;-86
2021/06/19 11:29:35;;;;;;;4.97;1.02;;;32.00;53.20;;;;;;4995090;28;20444;-83
2021/06/19 11:32:25;;;;;;;1.73;1.00;;;31.80;52.40;;;;;;5012486;28;20365;-85
2021/06/19 11:34:55;;;;;;;2.70;0.80;;;31.70;51.90;;;;;;5012264;28;20038;-85
2021/06/19 11:37:22;;;;;;;4.22;1.00;;;31.70;50.00;;;;;;4995111;28;20117;-86
2021/06/19 11:39:47;;;;;;;2.40;0.98;;;31.80;51.40;;;;;;5011578;28;20040;-86
2021/06/19 11:42:14;;;;;;;1.70;0.90;;;31.70;51.60;;;;;;5012359;28;20180;-85
2021/06/19 11:44:46;;;;;;;3.55;1.00;;;31.90;51.70;;;;;;5013888;28;20100;-87
2021/06/19 11:47:12;;;;;;;2.15;0.73;;;32.00;52.40;;;;;;4994962;28;20045;-85
2021/06/19 11:49:41;;;;;;;4.30;1.80;;;31.90;51.40;;;;;;5011581;28;20034;-86
2021/06/19 11:52:08;;;;;;;1.45;1.30;;;31.90;50.20;;;;;;4995380;28;20038;-86
2021/06/19 11:54:41;;;;;;;2.95;0.80;;;31.90;50.50;;;;;;5012164;28;20045;-85
2021/06/19 11:57:11;;;;;;;3.05;0.90;;;31.90;50.80;;;;;;5011995;28;20026;-84
2021/06/19 11:59:36;;;;;;;1.27;1.15;;;31.90;51.20;;;;;;4996001;28;20038;-85
2021/06/19 12:02:02;;;;;;;3.22;1.92;;;31.80;51.30;;;;;;4994403;28;20097;-85
2021/06/19 12:04:30;;;;;;;2.03;1.35;;;31.80;51.20;;;;;;4994412;28;20494;-86
2021/06/19 12:06:57;;;;;;;;;;;32.00;51.30;;;;;;5012229;28;20022;-84
2021/06/19 12:09:25;;;;;;;4.65;2.03;;;32.10;51.70;;;;;;5011994;28;19920;-86
2021/06/19 12:12:01;;;;;;;1.17;1.00;;;32.20;51.80;;;;;;5013336;28;20576;-85
2021/06/19 12:14:29;;;;;;;1.70;0.73;;;31.70;51.70;;;;;;5011402;28;20492;-84
2021/06/19 12:16:58;;;;;;;1.20;0.73;;;31.80;51.70;;;;;;4993562;28;20476;-85
2021/06/19 12:19:26;;;;;;;2.90;1.00;;;31.70;52.50;;;;;;5011155;28;20049;-85
2021/06/19 12:22:00;;;;;;;2.47;0.90;;;31.70;53.10;;;;;;5010957;28;20070;-83
2021/06/19 12:24:53;;;;;;;1.90;1.05;;;31.70;53.30;;;;;;5011348;28;20113;-84
2021/06/19 12:27:21;;;;;;;2.65;1.83;;;31.80;53.70;;;;;;5007156;28;20113;-85
2021/06/19 12:29:54;;;;;;;2.88;1.15;;;31.80;53.70;;;;;;5012658;28;20112;-82
2021/06/19 12:32:28;;;;;;;2.95;1.60;;;31.90;53.10;;;;;;5010860;28;20042;-83
2021/06/19 12:35:01;;;;;;;1.35;0.80;;;31.70;53.30;;;;;;4993384;28;20038;-84
2021/06/19 12:37:33;;;;;;;1.40;0.85;;;31.60;52.50;;;;;;5010861;28;20041;-86
2021/06/19 12:40:00;;;;;;;1.85;1.00;;;31.50;52.90;;;;;;5011030;28;20377;-84
2021/06/19 12:42:57;;;;;;;1.20;0.65;;;31.50;53.40;;;;;;5010783;28;20359;-84
2021/06/19 12:45:25;;;;;;;2.95;1.60;;;31.40;51.70;;;;;;5011006;28;20033;-85
2021/06/19 12:47:51;;;;;;;;;;;31.40;52.80;;;;;;4995594;28;20088;-86
2021/06/19 12:50:20;;;;;;;3.50;1.27;;;31.40;53.20;;;;;;5012930;28;20069;-85
2021/06/19 12:53:06;;;;;;;1.45;1.33;;;31.60;53.00;;;;;;5011057;28;20041;-84